Flight Track Log - Related Links

Times and Time Zones

All times are in EST time to prevent confusion due to time zone crossing. See the EJA922 flight status page for this flight to view local times or setup timezone preferences in your user account.

Time Position Orientation Groundspeed Altitude Reporting Facility
EST Latitude Longitude Course Direction KTS MPH feet Rate Location/Type
Sat 09:52:21 AM 26.1675 -81.9419 299° West 279 321 7,900  Level Miami Center
Sat 09:53:21 AM 26.1978 -82.0311 291° West 293 337 11,200 3,200 Climbing Miami Center
Sat 09:54:21 AM 26.2131 -82.1289 280° West 313 360 14,300 3,200 Climbing Miami Center
Sat 09:55:21 AM 26.2258 -82.2336 278° West 331 381 17,600 2,650 Climbing Miami Center
Sat 09:56:00 AM 26.4293 -82.5340 299° West  Level Estimated
Sat 09:56:21 AM 26.2431 -82.3364 281° West 337 388 19,600  Level Miami Center
Sat 09:57:21 AM 26.2744 -82.4394 289° West 337 388 21,300 1,700 Climbing Miami Center
Sat 09:58:21 AM 26.3061 -82.5383 290° West 348 400 23,000 1,700 Climbing Miami Center
Sat 09:59:21 AM 26.3417 -82.6467 290° West 354 407 24,700 1,550 Climbing Miami Center
Sat 10:00:21 AM 26.3792 -82.7528 292° West 361 415 26,100 1,450 Climbing Miami Center
Sat 10:01:21 AM 26.4164 -82.8611 291° West 366 421 27,600 1,450 Climbing Miami Center
Sat 10:02:21 AM 26.4536 -82.9672 291° West 372 428 29,000 1,200 Climbing Miami Center
Sat 10:03:21 AM 26.4925 -83.0853 290° West 384 442 30,000 1,000 Climbing Miami Center
Sat 10:04:21 AM 26.5353 -83.2058 292° West 404 465 31,000 1,100 Climbing Miami Center
Sat 10:05:21 AM 26.5758 -83.3264 291° West 416 479 32,200 1,250 Climbing Miami Center
Sat 10:06:21 AM 26.6164 -83.4494 290° West 421 484 33,500 1,700 Climbing Miami Center
Sat 10:07:21 AM 26.6586 -83.5703 291° West 421 484 35,600 1,800 Climbing Miami Center
Sat 10:08:21 AM 26.6969 -83.6908 290° West 416 479 37,100 1,200 Climbing Miami Center
Sat 10:09:21 AM 26.7436 -83.8028 295° West 411 473 38,000 450 Climbing Miami Center
Sat 10:10:21 AM 26.8006 -83.9247 298° West 416 479 38,000  Level Miami Center
Sat 10:11:21 AM 26.8569 -84.0467 297° West 428 493 38,000  Level Miami Center
Sat 10:12:21 AM 26.9078 -84.1592 297° West 443 510 38,000  Level Miami Center
Sat 10:13:21 AM 26.9661 -84.2836 298° West 454 522 38,000  Level Miami Center
Sat 10:14:21 AM 27.0219 -84.4131 296° West 461 531 38,000  Level Miami Center
Sat 10:15:21 AM 27.0817 -84.5428 297° West 466 536 38,000  Level Miami Center
Sat 10:16:21 AM 27.1417 -84.6678 298° West 466 536 38,000 50 Level Miami Center
Sat 10:17:21 AM 27.2014 -84.7956 298° West 460 529 38,100 250 Climbing Miami Center
Sat 10:18:21 AM 27.2508 -84.9225 294° West 460 529 38,500 620 Climbing Miami Center
Sat 10:22:21 AM 27.3053 -85.4278 277° West 415 478 41,200 680 Climbing Jacksonville Center
Sat 10:23:21 AM 27.3486 -85.5550 291° West 424 488 41,900 650 Climbing Jacksonville Center
Sat 10:24:21 AM 27.4089 -85.6569 304° West 441 507 42,500 550 Climbing Jacksonville Center
Sat 10:25:21 AM 27.4669 -85.7756 299° West 443 510 43,000 250 Climbing Jacksonville Center
Sat 10:26:21 AM 27.5267 -85.8919 300° West 434 499 43,000  Level Jacksonville Center
Sat 10:27:21 AM 27.5844 -86.0083 299° West 434 499 43,000  Level Jacksonville Center
Sat 10:28:21 AM 27.6481 -86.1319 300° West 440 506 43,000 -50 Level Jacksonville Center
Sat 10:29:21 AM 27.7056 -86.2508 299° West 445 512 42,900  Descending Jacksonville Center
Sat 10:30:21 AM 27.7689 -86.3842 298° West 452 520 43,000 50 Climbing Jacksonville Center
Sat 10:31:21 AM 27.8261 -86.4989 299° West 452 520 43,000  Level Jacksonville Center
Sat 10:32:21 AM 27.8856 -86.6136 300° West 441 507 43,000  Level Jacksonville Center
Sat 10:33:21 AM 27.9464 -86.7428 298° West 446 513 43,000  Level Jacksonville Center
Sat 10:34:21 AM 28.0014 -86.8575 299° West 434 499 43,000 -50 Level Jacksonville Center
Sat 10:35:21 AM 28.0369 -86.9858 287° West 428 493 42,900  Descending Jacksonville Center
Sat 10:36:21 AM 28.0433 -87.1131 273° West 411 473 43,000 50 Climbing Jacksonville Center
Sat 10:37:21 AM 28.0492 -87.2450 273° West 411 473 43,000  Level Jacksonville Center
Sat 10:38:21 AM 28.0592 -87.3769 275° West 417 480 43,000  Level Jacksonville Center
Sat 10:39:04 AM 28.0600 -87.4633 271° West 410 472 43,000  Level Houston Center
Sat 10:40:06 AM 28.0825 -87.5919 281° West 418 481 43,000  Level Houston Center
Sat 10:41:07 AM 28.1181 -87.7203 287° West 424 488 43,000  Level Houston Center
Sat 10:42:09 AM 28.1531 -87.8489 287° West 426 490 43,000  Level Houston Center
Sat 10:43:10 AM 28.1894 -87.9769 288° West 427 491 43,000  Level Houston Center
Sat 10:44:12 AM 28.2303 -88.1222 288° West 429 494 43,000  Level Houston Center
Sat 10:45:13 AM 28.2653 -88.2506 287° West 427 491 43,000  Level Houston Center
Sat 10:46:15 AM 28.2944 -88.3786 285° West 423 487 43,000  Level Houston Center
Sat 10:47:17 AM 28.3203 -88.5058 283° West 417 480 43,000  Level Houston Center
Sat 10:48:18 AM 28.3478 -88.6336 284° West 417 480 43,000  Level Houston Center
Sat 10:49:20 AM 28.3792 -88.7864 283° West 414 476 43,000  Level Houston Center
Sat 10:50:22 AM 28.4058 -88.9136 283° West 414 476 43,000  Level Houston Center
Sat 10:51:23 AM 28.4494 -89.0392 292° West 427 491 43,000  Level Houston Center
Sat 10:52:25 AM 28.5269 -89.1494 309° West 448 516 43,000 -49 Level Houston Center
Sat 10:53:26 AM 28.5881 -89.2700 300° West 442 509 42,900  Descending Houston Center
Sat 10:54:28 AM 28.6497 -89.3892 301° West 438 504 43,000 48 Climbing Houston Center
Sat 10:55:30 AM 28.7106 -89.5089 300° West 438 504 43,000  Level Houston Center
Sat 10:56:31 AM 28.7725 -89.6283 301° West 438 504 43,000  Level Houston Center
Sat 10:57:34 AM 28.8444 -89.7714 300° West 434 499 43,000  Level Houston Center
Sat 10:58:35 AM 28.9047 -89.8889 300° West 431 496 43,000  Level Houston Center
Sat 10:59:36 AM 28.9650 -90.0078 300° West 431 496 43,000  Level Houston Center
Sat 11:00:38 AM 29.0253 -90.1267 300° West 431 496 43,000  Level Houston Center
Sat 11:01:40 AM 29.0850 -90.2447 300° West 429 494 43,000  Level Houston Center
Sat 11:02:41 AM 29.1447 -90.3642 300° West 431 496 43,000  Level Houston Center
Sat 11:03:43 AM 29.2047 -90.4828 300° West 431 496 43,000 -48 Level Houston Center
Sat 11:04:45 AM 29.2647 -90.6036 300° West 433 498 42,900  Descending Houston Center
Sat 11:05:47 AM 29.3372 -90.7483 300° West 436 502 43,000 49 Climbing Houston Center
Sat 11:06:48 AM 29.3975 -90.8669 300° West 432 497 43,000  Level Houston Center
Sat 11:07:50 AM 29.4558 -90.9853 300° West 427 491 43,000  Level Houston Center
Sat 11:08:52 AM 29.5147 -91.1050 299° West 429 494 43,000  Level Houston Center
Sat 11:09:53 AM 29.5736 -91.2233 300° West 428 493 43,000  Level Houston Center
Sat 11:10:55 AM 29.6325 -91.3428 300° West 429 494 43,000  Level Houston Center
Sat 11:11:57 AM 29.6906 -91.4611 299° West 426 490 43,000  Level Houston Center
Sat 11:12:59 AM 29.7483 -91.5806 299° West 428 493 43,000  Level Houston Center
Sat 11:14:01 AM 29.8203 -91.7250 300° West 429 494 43,000  Level Houston Center
Sat 11:15:03 AM 29.8769 -91.8447 299° West 428 493 43,000  Level Houston Center
Sat 11:16:04 AM 29.9353 -91.9642 299° West 428 493 43,000  Level Houston Center
Sat 11:17:06 AM 29.9925 -92.0806 300° West 421 484 43,000  Level Houston Center
Sat 11:18:08 AM 30.0478 -92.1975 299° West 417 480 43,000  Level Houston Center
Sat 11:19:10 AM 30.1044 -92.3131 300° West 414 476 43,000  Level Houston Center
Sat 11:20:12 AM 30.1600 -92.4297 299° West 415 478 43,000  Level Houston Center
Sat 11:21:13 AM 30.2256 -92.5689 299° West 412 474 43,000  Level Houston Center
Sat 11:22:15 AM 30.2811 -92.6847 299° West 414 476 43,000  Level Houston Center
Sat 11:23:17 AM 30.3372 -92.8019 299° West 418 481 43,000  Level Houston Center
Sat 11:24:19 AM 30.3925 -92.9183 299° West 415 478 43,000  Level Houston Center
Sat 11:25:21 AM 30.4475 -93.0364 298° West 418 481 43,000  Level Houston Center
Sat 11:26:23 AM 30.5139 -93.1758 299° West 417 480 43,000  Level Houston Center
Sat 11:27:24 AM 30.5606 -93.2956 294° West 413 475 43,000  Level Houston Center
Sat 11:28:26 AM 30.5972 -93.4181 289° West 409 471 43,000  Level Houston Center
Sat 11:29:28 AM 30.6375 -93.5389 291° West 406 467 43,000  Level Houston Center
Sat 11:30:30 AM 30.6750 -93.6614 290° West 407 468 43,000  Level Houston Center
Sat 11:31:32 AM 30.7211 -93.8092 290° West 409 471 43,000  Level Houston Center
Sat 11:32:34 AM 30.7608 -93.9328 291° West 409 471 43,000  Level Houston Center
Sat 11:33:36 AM 30.7992 -94.0564 290° West 409 471 43,000  Level Houston Center
Sat 11:34:38 AM 30.8381 -94.1825 290° West 414 476 43,000  Level Houston Center
Sat 11:35:40 AM 30.8811 -94.3258 289° West 413 475 43,000  Level Houston Center
Sat 11:36:42 AM 30.9214 -94.4536 290° West 416 479 43,000  Level Houston Center
Sat 11:37:44 AM 30.9600 -94.5828 289° West 419 482 43,000  Level Houston Center
Sat 11:38:46 AM 30.9997 -94.7133 290° West 422 486 43,000  Level Houston Center
Sat 11:39:48 AM 31.0397 -94.8436 290° West 420 483 43,000  Level Houston Center
Sat 11:40:50 AM 31.0789 -94.9731 289° West 418 481 43,000  Level Houston Center
Sat 11:41:53 AM 31.1175 -95.1019 289° West 416 479 43,000  Level Houston Center
Sat 11:42:54 AM 31.1567 -95.2300 290° West 417 480 43,000  Level Houston Center
Sat 11:43:56 AM 31.2031 -95.3847 289° West 420 483 43,000  Level Houston Center
Sat 11:44:58 AM 31.2417 -95.5153 289° West 423 487 43,000  Level Houston Center
Sat 11:46:01 AM 31.2789 -95.6458 288° West 424 488 43,000  Level Houston Center
Sat 11:47:03 AM 31.3192 -95.7772 290° West 428 493 43,000  Level Houston Center
Sat 11:48:05 AM 31.3572 -95.9103 289° West 431 496 43,000  Level Houston Center
Sat 11:49:07 AM 31.3972 -96.0444 289° West 435 501 43,000  Level Houston Center
Sat 11:50:09 AM 31.4428 -96.2025 289° West 435 501 43,000  Level Houston Center
Sat 11:51:11 AM 31.4822 -96.3369 289° West 434 499 43,000  Level Houston Center
Sat 11:52:13 AM 31.5214 -96.4731 289° West 437 503 43,000  Level Houston Center
Sat 11:53:15 AM 31.5603 -96.6094 289° West 438 504 43,000  Level Houston Center
Sat 11:54:17 AM 31.5997 -96.7453 289° West 438 504 43,000  Level Houston Center
Sat 11:55:19 AM 31.6386 -96.8814 289° West 438 504 43,000  Level Houston Center
Sat 11:56:22 AM 31.6839 -97.0428 288° West 444 511 43,000  Level Houston Center
Sat 11:57:24 AM 31.7225 -97.1794 288° West 441 507 43,000  Level Houston Center
Sat 11:57:54 AM 31.7428 -97.2494 289° West 448 516 43,000  Level Fort Worth Center
Sat 11:58:56 AM 31.7817 -97.3878 288° West 446 513 43,000  Level Fort Worth Center
Sat 11:59:59 AM 31.8200 -97.5247 288° West 442 509 43,000  Level Fort Worth Center
Sat 12:01:01 PM 31.8581 -97.6631 288° West 442 509 43,000  Level Fort Worth Center
Sat 12:02:03 PM 31.9022 -97.8239 288° West 441 507 43,000  Level Fort Worth Center
Sat 12:03:05 PM 31.9400 -97.9611 288° West 439 505 43,000  Level Fort Worth Center
Sat 12:04:07 PM 31.9744 -98.0858 288° West 436 502 43,000  Level Fort Worth Center
Sat 12:05:09 PM 32.0117 -98.2239 288° West 441 507 43,000  Level Fort Worth Center
Sat 12:06:11 PM 32.0561 -98.3875 288° West 438 504 43,000  Level Fort Worth Center
Sat 12:07:13 PM 32.0908 -98.5169 288° West 439 505 43,000  Level Fort Worth Center
Sat 12:08:15 PM 32.1286 -98.6558 288° West 442 509 43,000  Level Fort Worth Center
Sat 12:09:17 PM 32.1647 -98.7936 287° West 441 507 43,000  Level Fort Worth Center
Sat 12:10:19 PM 32.2017 -98.9319 288° West 442 509 43,000  Level Fort Worth Center
Sat 12:11:21 PM 32.2444 -99.0972 287° West 440 506 43,000  Level Fort Worth Center
Sat 12:12:24 PM 32.2817 -99.2353 288° West 440 506 43,000  Level Fort Worth Center
Sat 12:13:26 PM 32.3181 -99.3736 287° West 440 506 43,000  Level Fort Worth Center
Sat 12:14:28 PM 32.3536 -99.5133 287° West 443 510 43,000  Level Fort Worth Center
Sat 12:15:30 PM 32.3892 -99.6528 287° West 441 507 43,000  Level Fort Worth Center
Sat 12:16:32 PM 32.4253 -99.7919 287° West 439 505 43,000  Level Fort Worth Center
Sat 12:17:34 PM 32.4617 -99.9347 287° West 445 512 43,000  Level Fort Worth Center
Sat 12:18:36 PM 32.4981 -100.0769 287° West 445 512 43,000  Level Fort Worth Center
Sat 12:19:38 PM 32.5414 -100.2464 287° West 444 511 43,000  Level Fort Worth Center
Sat 12:20:40 PM 32.5772 -100.3864 287° West 442 509 43,000  Level Fort Worth Center
Sat 12:21:42 PM 32.6128 -100.5264 287° West 442 509 43,000  Level Fort Worth Center
Sat 12:22:44 PM 32.6475 -100.6658 287° West 440 506 43,000  Level Fort Worth Center
Sat 12:23:46 PM 32.6825 -100.8056 287° West 440 506 43,000  Level Fort Worth Center
Sat 12:24:48 PM 32.7164 -100.9453 286° West 441 507 43,000  Level Fort Worth Center
Sat 12:25:50 PM 32.7503 -101.0850 286° West 440 506 43,000  Level Fort Worth Center
Sat 12:26:52 PM 32.7917 -101.2522 286° West 440 506 43,000  Level Fort Worth Center
Sat 12:27:54 PM 32.8253 -101.3914 286° West 438 504 43,000  Level Fort Worth Center
Sat 12:28:56 PM 32.8594 -101.5297 286° West 438 504 43,000  Level Fort Worth Center
Sat 12:29:58 PM 32.8942 -101.6833 285° West 436 502 43,000  Level Fort Worth Center
Sat 12:31:01 PM 32.9278 -101.8225 286° West 438 504 43,000  Level Fort Worth Center
Sat 12:32:03 PM 32.9617 -101.9625 286° West 443 510 43,000  Level Fort Worth Center
Sat 12:33:05 PM 32.9953 -102.1019 286° West 444 511 43,000  Level Fort Worth Center
Sat 12:34:07 PM 33.0275 -102.2422 285° West 445 512 43,000  Level Fort Worth Center
Sat 12:35:09 PM 33.0658 -102.4100 285° West 444 511 43,000  Level Fort Worth Center
Sat 12:36:11 PM 33.1000 -102.5528 286° West 452 520 43,000  Level Fort Worth Center
Sat 12:37:13 PM 33.1328 -102.6967 285° West 454 522 43,000  Level Fort Worth Center
Sat 12:38:15 PM 33.1669 -102.8392 286° West 452 520 43,000  Level Fort Worth Center
Sat 12:39:17 PM 33.1989 -102.9872 284° West 462 532 43,000  Level Fort Worth Center
Sat 12:40:15 PM 33.2308 -103.1369 284° West 468 539 43,000  Level Albuquerque Center
Sat 12:41:17 PM 33.2653 -103.2844 286° West 468 539 43,000  Level Albuquerque Center
Sat 12:42:19 PM 33.3039 -103.4644 284° West 468 539 43,000  Level Albuquerque Center
Sat 12:43:21 PM 33.3364 -103.6125 285° West 465 535 43,000  Level Albuquerque Center
Sat 12:44:23 PM 33.3783 -103.7761 287° West 468 539 43,000  Level Albuquerque Center
Sat 12:45:25 PM 33.4406 -103.9128 299° West 467 537 43,000  Level Albuquerque Center
Sat 12:46:27 PM 33.5172 -104.0558 303° West 474 545 43,000  Level Albuquerque Center
Sat 12:47:29 PM 33.5881 -104.1883 303° West 474 545 43,000  Level Albuquerque Center
Sat 12:48:31 PM 33.6642 -104.3314 303° West 475 547 43,000  Level Albuquerque Center
Sat 12:49:33 PM 33.7353 -104.4661 302° West 479 551 43,000  Level Albuquerque Center
Sat 12:50:35 PM 33.8122 -104.6119 302° West 482 555 43,000  Level Albuquerque Center
Sat 12:51:37 PM 33.8833 -104.7475 302° West 482 555 43,000  Level Albuquerque Center
Sat 12:52:39 PM 33.9600 -104.8958 302° West 485 558 43,000  Level Albuquerque Center
Sat 12:53:41 PM 34.0256 -105.0156 303° West 487 560 43,000  Level Albuquerque Center
Sat 12:54:43 PM 34.1114 -105.1794 302° West 489 563 43,000  Level Albuquerque Center
Sat 12:55:45 PM 34.1836 -105.3197 302° West 487 560 43,000  Level Albuquerque Center
Sat 12:56:47 PM 34.2578 -105.4633 302° West 493 567 43,000  Level Albuquerque Center
Sat 12:57:49 PM 34.3308 -105.6047 302° West 492 566 43,000  Level Albuquerque Center
Sat 12:58:51 PM 34.3658 -105.7606 285° West 485 558 43,000  Level Albuquerque Center
Sat 12:59:53 PM 34.3756 -105.9311 274° West 496 571 43,000  Level Albuquerque Center
Sat 01:00:55 PM 34.3789 -106.0989 271° West 495 570 43,000  Level Albuquerque Center
Sat 01:01:57 PM 34.3836 -106.2611 272° West 496 571 43,000  Level Albuquerque Center
Sat 01:02:59 PM 34.3883 -106.4606 272° West 495 570 43,000  Level Albuquerque Center
Sat 01:04:01 PM 34.3933 -106.6342 272° West 490 564 43,000  Level Albuquerque Center
Sat 01:05:03 PM 34.3958 -106.7981 271° West 488 562 43,000  Level Albuquerque Center
Sat 01:06:05 PM 34.4000 -106.9603 272° West 484 557 43,000  Level Albuquerque Center
Sat 01:07:08 PM 34.4036 -107.1347 271° West 483 556 43,000  Level Albuquerque Center
Sat 01:08:10 PM 34.4033 -107.2769 270° West 479 551 43,000  Level Albuquerque Center
Sat 01:09:12 PM 34.4075 -107.4414 272° West 481 554 43,000  Level Albuquerque Center
Sat 01:10:14 PM 34.4103 -107.6356 271° West 481 554 43,000  Level Albuquerque Center
Sat 01:11:16 PM 34.4117 -107.7961 271° West 478 550 43,000  Level Albuquerque Center
Sat 01:12:18 PM 34.4150 -107.9581 271° West 479 551 43,000  Level Albuquerque Center
Sat 01:13:20 PM 34.4172 -108.1183 271° West 478 550 43,000  Level Albuquerque Center
Sat 01:14:22 PM 34.4192 -108.2797 271° West 479 551 43,000  Level Albuquerque Center
Sat 01:15:24 PM 34.4194 -108.4397 270° West 476 548 43,000  Level Albuquerque Center
Sat 01:16:26 PM 34.4219 -108.6208 271° West 476 548 43,000  Level Albuquerque Center
Sat 01:17:28 PM 34.4225 -108.7744 270° West 475 547 43,000  Level Albuquerque Center
Sat 01:18:30 PM 34.4236 -108.9536 270° West 476 548 43,000  Level Albuquerque Center
Sat 01:19:32 PM 34.4250 -109.1072 271° West 476 548 43,000  Level Albuquerque Center
Sat 01:20:34 PM 34.4189 -109.2886 268° West 479 551 43,000  Level Albuquerque Center
Sat 01:21:36 PM 34.4136 -109.4447 268° West 482 555 43,000  Level Albuquerque Center
Sat 01:22:38 PM 34.4078 -109.6281 268° West 485 558 43,000  Level Albuquerque Center
Sat 01:23:40 PM 34.4036 -109.7839 268° West 484 557 43,000  Level Albuquerque Center
Sat 01:24:42 PM 34.4006 -109.9669 269° West 486 559 43,000  Level Albuquerque Center
Sat 01:25:44 PM 34.3956 -110.1228 268° West 484 557 43,000  Level Albuquerque Center
Sat 01:26:46 PM 34.3903 -110.3033 268° West 482 555 43,000  Level Albuquerque Center
Sat 01:27:48 PM 34.3867 -110.4578 268° West 489 563 43,000  Level Albuquerque Center
Sat 01:28:50 PM 34.3844 -110.6236 269° West 496 571 43,000  Level Albuquerque Center
Sat 01:29:52 PM 34.3753 -110.7833 266° West 485 558 43,000  Level Albuquerque Center
Sat 01:30:55 PM 34.3672 -110.9775 267° West 483 556 43,000  Level Albuquerque Center
Sat 01:31:57 PM 34.3633 -111.1392 268° West 483 556 43,000  Level Albuquerque Center
Sat 01:32:59 PM 34.3572 -111.3025 267° West 487 560 43,000  Level Albuquerque Center
Sat 01:34:01 PM 34.3506 -111.4647 267° West 488 562 43,000  Level Albuquerque Center
Sat 01:35:03 PM 34.3442 -111.6281 267° West 489 563 43,000  Level Albuquerque Center
Sat 01:36:05 PM 34.3367 -111.8222 267° West 490 564 43,000  Level Albuquerque Center
Sat 01:37:07 PM 34.3297 -111.9839 267° West 489 563 43,000  Level Albuquerque Center
Sat 01:38:09 PM 34.3233 -112.1450 267° West 486 559 43,000  Level Albuquerque Center
Sat 01:39:11 PM 34.3161 -112.3047 267° West 483 556 43,000  Level Albuquerque Center
Sat 01:40:13 PM 34.3086 -112.4658 267° West 482 555 43,000  Level Albuquerque Center
Sat 01:41:15 PM 34.2983 -112.6600 266° West 484 557 43,000  Level Albuquerque Center
Sat 01:42:17 PM 34.2900 -112.8211 266° West 483 556 43,000  Level Albuquerque Center
Sat 01:43:19 PM 34.2814 -112.9819 266° West 483 556 43,000  Level Albuquerque Center
Sat 01:44:21 PM 34.2733 -113.1442 267° West 483 556 43,000  Level Albuquerque Center
Sat 01:45:23 PM 34.2653 -113.3064 267° West 484 557 43,000  Level Albuquerque Center
Sat 01:46:25 PM 34.2564 -113.4700 266° West 486 559 43,000  Level Albuquerque Center
Sat 01:47:27 PM 34.2481 -113.6669 267° West 487 560 43,000  Level Albuquerque Center
Sat 01:48:29 PM 34.2378 -113.8289 266° West 486 559 43,000  Level Albuquerque Center
Sat 01:49:31 PM 34.2303 -113.9894 267° West 484 557 43,000  Level Albuquerque Center
Sat 01:50:33 PM 34.2203 -114.1500 266° West 482 555 43,000  Level Albuquerque Center
Sat 01:51:35 PM 34.2094 -114.3150 266° West 484 557 43,000 -313 Level Albuquerque Center
Sat 01:52:28 PM 34.2019 -114.4581 266° West 483 556 42,400 -1,096 Descending Los Angeles Center
Sat 01:53:30 PM 34.1917 -114.6153 266° West 474 545 40,900 -1,597 Descending Los Angeles Center
Sat 01:54:32 PM 34.1797 -114.8047 266° West 473 544 39,100 -1,645 Descending Los Angeles Center
Sat 01:55:34 PM 34.1683 -114.9664 265° West 484 557 37,500 -1,500 Descending Los Angeles Center
Sat 01:56:36 PM 34.1578 -115.1275 266° West 483 556 36,000 -1,452 Descending Los Angeles Center
Sat 01:57:38 PM 34.1469 -115.2908 265° West 489 563 34,500 -1,452 Descending Los Angeles Center
Sat 01:58:40 PM 34.1339 -115.4556 265° West 494 568 33,000 -1,597 Descending Los Angeles Center
Sat 01:59:42 PM 34.0889 -115.6458 254° West 494 568 31,200 -1,824 Descending Los Angeles Center
Sat 02:00:45 PM 34.0467 -115.8019 252° West 492 566 29,200 -1,920 Descending Los Angeles Center
Sat 02:01:47 PM 34.0031 -115.9561 251° West 490 564 27,200 -2,081 Descending Los Angeles Center
Sat 02:02:49 PM 33.9644 -116.0900 251° West 460 529 24,900 -1,935 Descending Los Angeles Center
Sat 02:03:51 PM 33.9308 -116.2100 251° West 402 463 23,200 -1,839 Descending Los Angeles Center
Sat 02:04:53 PM 33.8908 -116.3542 252° West 384 442 21,100 -1,839 Descending Los Angeles Center
Sat 02:05:55 PM 33.8725 -116.4750 260° West 372 428 19,400 -1,694 Descending Los Angeles Center
Sat 02:06:57 PM 33.8769 -116.5969 273° West 366 421 17,600 -1,790 Descending Los Angeles Center
Sat 02:07:59 PM 33.8833 -116.7178 274° West 365 420 15,700 -1,742 Descending Los Angeles Center
Sat 02:09:01 PM 33.8881 -116.8386 273° West 363 418 14,000 -1,224 Descending Los Angeles Center
Sat 02:09:37 PM 33.8833 -116.9333 267° West 350 403 13,700 -1,210 Descending Southern California TRACON
Sat 02:11:05 PM 33.8542 -117.0789 256° West 324 373 11,500 -1,476 Descending Los Angeles Center
Sat 02:11:43 PM 33.8500 -117.1333 265° West 291 335 10,600 -1,531 Descending Southern California TRACON
Sat 02:12:43 PM 33.8333 -117.2333 259° West 279 321 9,000 -1,300 Descending Southern California TRACON
Sat 02:13:43 PM 33.8167 -117.3167 256° West 271 312 8,000 -500 Descending Southern California TRACON
Sat 02:14:43 PM 33.8167 -117.4000 270° West 216 249 8,000  Level Southern California TRACON
Sat 02:15:14 PM 33.8042 -117.4203 233° Southwest 216 249 8,000  Level Los Angeles Center
Sat 02:16:16 PM 33.7950 -117.4861 261° West 201 231 8,000 -581 Level Los Angeles Center
Sat 02:17:18 PM 33.7836 -117.5658 260° West 202 232 6,800 -720 Descending Los Angeles Center
Sat 02:18:21 PM 33.7925 -117.6289 280° West 193 222 6,500 -960 Descending Los Angeles Center
Sat 02:19:23 PM 33.7894 -117.6883 266° West 181 208 4,800 -1,355 Descending Los Angeles Center
Sat 02:20:25 PM 33.7769 -117.7506 256° West 188 216 3,700 -829 Descending Los Angeles Center
Sat 02:21:26 PM 33.7550 -117.8100 246° West 193 222 3,100 -1,161 Descending Los Angeles Center
Sat 02:22:29 PM 33.7167 -117.8431 216° Southwest 179 206 1,300 -1,296 Descending Los Angeles Center
Sat 02:23:31 PM 33.6831 -117.8636 207° Southwest 153 176 400 -871 Descending Los Angeles Center
Sat 02:25:00 PM 33.6757 -117.8682 132° Southeast  Level Estimated

Login

Don't have an account? Register now (free) for customized features, flight alerts, and more!